Terminal Aerodrome Forecast
Issued by NWS Louisville, KY

Home | Current Version | Previous Version | Text Only | Print | Product List | Glossary On
Versions: 1 2 3 4 5 6 7 8 9 10 11 12 13 14 15 16 17 18 19
642
FTUS43 KLMK 202320
TAFBWG
TAF
KBWG 202320Z 2100/2124 19003KT P6SM BKN035
     FM210600 00000KT 5SM BR FEW250
     FM210800 00000KT 2SM BR FEW250
     FM211000 00000KT 1/2SM FG FEW250
     FM211400 VRB03KT P6SM FEW040 SCT200
     FM211800 09005KT P6SM FEW040=

USA.gov is the U.S. government's official web portal to all federal, state and local government web resources and services.